Edge Hill, Georgia
Current Conditions -  °F | °C
As of 9:15 AM on Sunday 21 Dec 2014 (Local Time) from KHQU Reporting Station
Overcast Overcast  
Wind Chill: 47°   Ceiling: 6000
Heat Index: 47°   Visibility: 10mi
Dew Point: 46°   Wind: 3mph
Humidity: 93%   Direction: 40°NE
Pressure: 30.28"   Gusts: NA
Location:  33.2563°N, 82.5721°W
Report Text: KHQU 211415Z AUTO 04003KT 10SM OVC060 09/08 A3028 RMK AO1 T00860075
Loading
Personal Weather Stations






























Interactive Weather Map New forecast layout! Learn more

10-Day Weather Forecast

Advertisements
Track Severe Weather on mobile